createdAt,value
2023-04-05T00:01:20.352Z,2.00
2023-04-05T00:03:47.633Z,1.97
2023-04-05T00:06:16.733Z,1.97
2023-04-05T00:08:50.052Z,1.97
2023-04-05T00:11:17.520Z,1.96
2023-04-05T00:13:44.210Z,1.89
2023-04-05T00:16:11.303Z,1.94
2023-04-05T00:18:38.753Z,1.96
2023-04-05T00:21:05.799Z,2.05
2023-04-05T00:23:42.635Z,2.06
2023-04-05T00:26:09.432Z,2.15
2023-04-05T00:28:36.271Z,2.18
2023-04-05T00:31:04.846Z,2.22
2023-04-05T00:33:31.787Z,2.25
2023-04-05T00:35:58.386Z,2.28
2023-04-05T00:38:25.109Z,2.30
2023-04-05T00:40:51.847Z,2.27
2023-04-05T00:43:18.462Z,2.26
2023-04-05T00:45:45.396Z,2.25
2023-04-05T00:48:12.406Z,2.18
2023-04-05T00:50:41.538Z,2.22
2023-04-05T00:53:08.784Z,2.20
2023-04-05T00:55:36.567Z,2.22
2023-04-05T00:58:03.362Z,2.16
2023-04-05T01:00:30.536Z,2.24
2023-04-05T01:03:01.988Z,2.28
2023-04-05T01:05:43.534Z,2.30
2023-04-05T01:08:28.836Z,2.31
2023-04-05T01:10:58.972Z,2.27
2023-04-05T01:13:26.060Z,2.33
2023-04-05T01:15:53.005Z,2.33
2023-04-05T01:18:22.236Z,2.35
2023-04-05T01:21:34.190Z,2.35
2023-04-05T01:24:16.224Z,2.36
2023-04-05T01:26:57.818Z,2.36
2023-04-05T01:29:40.115Z,2.36
2023-04-05T01:32:40.376Z,2.34
2023-04-05T01:35:25.570Z,2.36
2023-04-05T01:37:59.563Z,2.31
2023-04-05T01:40:27.445Z,2.33
2023-04-05T01:42:54.197Z,2.35
2023-04-05T01:45:20.938Z,2.36
2023-04-05T01:47:48.258Z,2.39
2023-04-05T01:50:15.657Z,2.41
2023-04-05T01:52:42.240Z,2.37
2023-04-05T01:55:09.060Z,2.41
2023-04-05T01:57:35.878Z,2.42
2023-04-05T02:00:02.604Z,2.43
2023-04-05T02:02:29.242Z,2.43
2023-04-05T02:04:56.320Z,2.36
2023-04-05T02:07:24.424Z,2.38
2023-04-05T02:09:51.059Z,2.39
2023-04-05T02:12:18.129Z,2.38
2023-04-05T02:14:44.884Z,2.31
2023-04-05T02:17:11.781Z,2.25
2023-04-05T02:19:41.178Z,2.23
2023-04-05T02:22:08.946Z,2.26
2023-04-05T02:24:35.744Z,2.21
2023-04-05T02:27:02.986Z,2.20
2023-04-05T02:29:29.659Z,2.13
2023-04-05T02:31:56.479Z,2.06
2023-04-05T02:34:23.637Z,2.01
2023-04-05T02:36:54.124Z,1.98
2023-04-05T02:39:20.809Z,1.96
2023-04-05T02:41:47.707Z,1.87
2023-04-05T02:44:14.388Z,1.90
2023-04-05T02:46:41.096Z,1.92
2023-04-05T02:49:07.951Z,1.86
2023-04-05T02:51:34.780Z,1.87
2023-04-05T02:54:05.635Z,1.87
2023-04-05T02:56:32.435Z,1.89
2023-04-05T02:58:59.395Z,1.96
2023-04-05T03:01:26.385Z,1.98
2023-04-05T03:03:53.348Z,2.00
2023-04-05T03:06:20.807Z,2.03
2023-04-05T03:08:49.427Z,2.06
2023-04-05T03:11:16.466Z,2.01
2023-04-05T03:13:43.317Z,2.00
2023-04-05T03:16:10.241Z,2.04
2023-04-05T03:18:37.184Z,2.02
2023-04-05T03:21:04.639Z,1.97
2023-04-05T03:23:32.244Z,1.98
2023-04-05T03:26:03.698Z,1.96
2023-04-05T03:28:32.575Z,1.99
2023-04-05T03:30:59.421Z,2.02
2023-04-05T03:33:26.318Z,1.99
2023-04-05T03:35:53.041Z,2.02
2023-04-05T03:38:19.885Z,2.05
2023-04-05T03:40:47.301Z,2.02
2023-04-05T03:43:13.918Z,2.02
2023-04-05T03:45:40.946Z,2.02
2023-04-05T03:48:08.078Z,2.04
2023-04-05T03:50:34.700Z,2.07
2023-04-05T03:53:01.615Z,2.07
2023-04-05T03:55:28.332Z,2.08
2023-04-05T03:57:56.057Z,2.09
2023-04-05T04:00:23.977Z,2.09
2023-04-05T04:02:52.563Z,2.11
2023-04-05T04:05:21.434Z,2.12
2023-04-05T04:07:48.506Z,2.13
2023-04-05T04:10:20.001Z,2.15
2023-04-05T04:12:46.705Z,2.12
2023-04-05T04:15:13.609Z,2.13
2023-04-05T04:17:40.481Z,2.06
2023-04-05T04:20:11.680Z,2.07
2023-04-05T04:22:40.379Z,2.04
2023-04-05T04:25:12.809Z,2.03
2023-04-05T04:27:42.834Z,2.07
2023-04-05T04:30:11.561Z,2.10
2023-04-05T04:32:58.923Z,2.13
2023-04-05T04:35:29.162Z,2.12
2023-04-05T04:38:05.239Z,2.10
2023-04-05T04:40:39.994Z,2.12
2023-04-05T04:43:14.584Z,2.10
2023-04-05T04:45:41.765Z,2.12
2023-04-05T04:48:08.797Z,2.21
2023-04-05T04:50:36.297Z,2.22
2023-04-05T04:53:03.104Z,2.25
2023-04-05T04:55:30.438Z,2.21
2023-04-05T04:57:57.267Z,2.23
2023-04-05T05:00:24.442Z,2.22
2023-04-05T05:02:52.555Z,2.18
2023-04-05T05:05:23.736Z,2.17
2023-04-05T05:07:50.888Z,2.08
2023-04-05T05:10:18.910Z,2.24
2023-04-05T05:12:46.151Z,2.28
2023-04-05T05:15:12.927Z,2.28
2023-04-05T05:17:39.749Z,2.31
2023-04-05T05:20:11.137Z,2.39
2023-04-05T05:22:39.165Z,2.44
2023-04-05T05:25:07.411Z,2.47
2023-04-05T05:27:34.150Z,2.50
2023-04-05T05:30:01.329Z,2.51
2023-04-05T05:32:28.238Z,2.53
2023-04-05T05:34:54.936Z,2.55
2023-04-05T05:37:34.676Z,2.63
2023-04-05T05:40:01.701Z,2.61
2023-04-05T05:42:28.400Z,2.70
2023-04-05T05:44:55.087Z,2.75
2023-04-05T05:47:22.059Z,2.78
2023-04-05T05:49:49.910Z,2.82
2023-04-05T05:52:16.996Z,2.80
2023-04-05T05:54:43.686Z,2.84
2023-04-05T05:57:10.543Z,2.83
2023-04-05T05:59:37.368Z,2.87
2023-04-05T06:02:04.450Z,2.87
2023-04-05T06:04:31.274Z,2.95
2023-04-05T06:06:58.439Z,2.92
2023-04-05T06:09:26.128Z,2.89
2023-04-05T06:11:56.767Z,2.87
2023-04-05T06:14:25.159Z,2.94
2023-04-05T06:16:52.467Z,2.92
2023-04-05T06:19:19.178Z,2.89
2023-04-05T06:21:45.976Z,2.94
2023-04-05T06:24:13.037Z,2.97
2023-04-05T06:26:39.695Z,2.95
2023-04-05T06:29:06.504Z,2.98
2023-04-05T06:31:35.526Z,3.04
2023-04-05T06:34:02.656Z,3.01
2023-04-05T06:36:34.167Z,3.06
2023-04-05T06:39:01.429Z,3.06
2023-04-05T06:41:28.813Z,3.02
2023-04-05T06:43:56.471Z,3.07
2023-04-05T06:46:24.501Z,3.07
2023-04-05T06:48:52.273Z,3.07
2023-04-05T06:51:19.339Z,3.05
2023-04-05T06:53:46.521Z,3.14
2023-04-05T06:56:13.425Z,3.14
2023-04-05T06:58:40.103Z,3.19
2023-04-05T07:01:07.598Z,3.15
2023-04-05T07:03:34.782Z,3.14
2023-04-05T07:06:01.881Z,3.17
2023-04-05T07:08:32.783Z,3.20
2023-04-05T07:10:59.711Z,3.24
2023-04-05T07:13:26.695Z,3.24
2023-04-05T07:16:00.895Z,3.32
2023-04-05T07:18:28.472Z,3.38
2023-04-05T07:21:00.280Z,3.42
2023-04-05T07:23:30.033Z,3.41
2023-04-05T07:26:04.540Z,3.43
2023-04-05T07:28:36.176Z,3.42
2023-04-05T07:31:04.599Z,3.44
2023-04-05T07:33:31.511Z,3.48
2023-04-05T07:35:58.832Z,3.48
2023-04-05T07:38:27.710Z,3.57
2023-04-05T07:40:54.373Z,3.64
2023-04-05T07:43:21.680Z,3.70
2023-04-05T07:45:48.520Z,3.79
2023-04-05T07:48:15.561Z,3.88
2023-04-05T07:50:48.084Z,3.97
2023-04-05T07:53:15.005Z,4.09
2023-04-05T07:55:42.266Z,4.15
2023-04-05T07:58:09.411Z,4.19
2023-04-05T08:00:37.076Z,4.23
2023-04-05T08:03:04.857Z,4.33
2023-04-05T08:05:31.992Z,4.35
2023-04-05T08:07:58.942Z,4.40
2023-04-05T08:10:26.261Z,4.39
2023-04-05T08:12:53.570Z,4.41
2023-04-05T08:15:20.331Z,4.41
2023-04-05T08:17:47.206Z,4.44
2023-04-05T08:20:14.270Z,4.51
2023-04-05T08:22:41.000Z,4.50
2023-04-05T08:25:08.483Z,4.58
2023-04-05T08:27:35.206Z,4.53
2023-04-05T08:30:02.085Z,4.54
2023-04-05T08:32:28.733Z,4.59
2023-04-05T08:34:55.630Z,4.64
2023-04-05T08:37:22.638Z,4.64
2023-04-05T08:39:49.298Z,4.67
2023-04-05T08:42:26.716Z,4.67
2023-04-05T08:44:54.262Z,4.73
2023-04-05T08:47:23.215Z,4.74
2023-04-05T08:49:50.664Z,4.73
2023-04-05T08:52:17.373Z,4.70
2023-04-05T08:54:44.307Z,4.70
2023-04-05T08:57:11.921Z,4.78
2023-04-05T08:59:42.009Z,4.85
2023-04-05T09:02:17.641Z,4.91
2023-04-05T09:04:45.506Z,4.95
2023-04-05T09:07:14.257Z,4.99
2023-04-05T09:09:49.112Z,4.98
2023-04-05T09:12:15.930Z,5.05
2023-04-05T09:14:43.958Z,5.14
2023-04-05T09:17:11.552Z,5.24
2023-04-05T09:19:39.109Z,5.26
2023-04-05T09:22:07.908Z,5.28
2023-04-05T09:24:36.936Z,5.31
2023-04-05T09:27:06.295Z,5.37
2023-04-05T09:29:33.066Z,5.43
2023-04-05T09:32:02.622Z,5.50
2023-04-05T09:34:32.172Z,5.52
2023-04-05T09:37:01.636Z,5.61
2023-04-05T09:39:30.722Z,5.66
2023-04-05T09:42:07.654Z,5.72
2023-04-05T09:44:53.278Z,5.77
2023-04-05T09:47:22.123Z,5.79
2023-04-05T09:49:48.920Z,5.83
2023-04-05T09:52:19.479Z,5.85
2023-04-05T09:54:46.429Z,5.80
2023-04-05T09:57:13.364Z,5.89
2023-04-05T09:59:41.098Z,5.91
2023-04-05T10:02:08.665Z,5.94
2023-04-05T10:04:45.576Z,5.99
2023-04-05T10:07:15.158Z,5.95
2023-04-05T10:09:47.526Z,5.96
2023-04-05T10:12:24.265Z,5.94
2023-04-05T10:14:51.176Z,6.01
2023-04-05T10:17:30.445Z,6.00
2023-04-05T10:20:17.476Z,6.02
2023-04-05T10:22:53.164Z,6.07
2023-04-05T10:25:53.506Z,6.13
2023-04-05T10:28:36.188Z,6.25
2023-04-05T10:31:37.041Z,6.27
2023-04-05T10:34:07.416Z,6.34
2023-04-05T10:36:40.694Z,6.40
2023-04-05T10:39:13.957Z,6.38
2023-04-05T10:41:47.599Z,6.38
2023-04-05T10:44:25.887Z,6.38
2023-04-05T10:46:55.698Z,6.35
2023-04-05T10:49:42.735Z,6.35
2023-04-05T10:52:10.288Z,6.32
2023-04-05T10:54:37.473Z,6.39
2023-04-05T10:57:09.381Z,6.39
2023-04-05T10:59:42.367Z,6.39
2023-04-05T11:02:10.474Z,6.40
2023-04-05T11:04:38.857Z,6.34
2023-04-05T11:07:16.994Z,6.24
2023-04-05T11:10:04.580Z,6.18
2023-04-05T11:12:46.830Z,6.13
2023-04-05T11:15:25.729Z,6.10
2023-04-05T11:18:21.969Z,6.10
2023-04-05T11:20:56.200Z,6.08
2023-04-05T11:23:25.363Z,6.09
2023-04-05T11:26:06.317Z,6.11
2023-04-05T11:28:43.068Z,6.16
2023-04-05T11:31:18.554Z,6.20
2023-04-05T11:33:54.667Z,6.18
2023-04-05T11:36:36.919Z,6.22
2023-04-05T11:39:19.027Z,6.22
2023-04-05T11:41:56.277Z,6.23
2023-04-05T11:44:26.484Z,6.22
2023-04-05T11:46:54.486Z,6.30
2023-04-05T11:49:28.558Z,6.37
2023-04-05T11:51:55.759Z,6.43
2023-04-05T11:54:33.183Z,6.44
2023-04-05T11:57:00.885Z,6.41
2023-04-05T11:59:35.437Z,6.44
2023-04-05T12:02:05.710Z,6.45
2023-04-05T12:04:32.533Z,6.44
2023-04-05T12:07:19.909Z,6.34
2023-04-05T12:10:07.531Z,6.41
2023-04-05T12:12:42.285Z,6.42
2023-04-05T12:15:11.809Z,6.37
2023-04-05T12:17:43.147Z,6.33
2023-04-05T12:20:15.055Z,6.42
2023-04-05T12:22:43.947Z,6.47
2023-04-05T12:25:11.350Z,6.51
2023-04-05T12:27:39.208Z,6.50
2023-04-05T12:30:27.872Z,6.54
2023-04-05T12:32:56.695Z,6.58
2023-04-05T12:35:34.861Z,6.66
2023-04-05T12:38:03.477Z,6.68
2023-04-05T12:40:31.062Z,6.63
2023-04-05T12:43:08.307Z,6.69
2023-04-05T12:45:43.224Z,6.68
2023-04-05T12:48:13.540Z,6.69
2023-04-05T12:50:48.539Z,6.74
2023-04-05T12:53:21.243Z,6.75
2023-04-05T12:55:50.751Z,6.73
2023-04-05T12:58:18.424Z,6.78
2023-04-05T13:00:46.248Z,6.82
2023-04-05T13:03:21.196Z,6.86
2023-04-05T13:05:49.702Z,6.86
2023-04-05T13:08:19.860Z,6.87
2023-04-05T13:10:47.834Z,6.90
2023-04-05T13:13:16.444Z,6.88
2023-04-05T13:15:43.681Z,6.91
2023-04-05T13:18:10.803Z,6.91
2023-04-05T13:20:38.878Z,6.86
2023-04-05T13:23:10.932Z,6.87
2023-04-05T13:25:42.104Z,6.97
2023-04-05T13:28:09.664Z,6.98
2023-04-05T13:30:36.517Z,6.92
2023-04-05T13:33:04.838Z,6.88
2023-04-05T13:35:32.015Z,6.80
2023-04-05T13:38:00.060Z,6.78
2023-04-05T13:40:28.044Z,6.75
2023-04-05T13:42:54.680Z,6.73
2023-04-05T13:45:21.485Z,6.71
2023-04-05T13:47:48.802Z,6.68
2023-04-05T13:50:15.593Z,6.69
2023-04-05T13:52:42.368Z,6.78
2023-04-05T13:55:09.552Z,6.76
2023-04-05T13:57:36.151Z,6.74
2023-04-05T14:00:03.250Z,6.76
2023-04-05T14:02:30.606Z,6.82
2023-04-05T14:04:57.346Z,6.85
2023-04-05T14:07:24.881Z,6.84
2023-04-05T14:09:52.099Z,6.84
2023-04-05T14:12:18.846Z,6.82
2023-04-05T14:14:45.722Z,6.79
2023-04-05T14:17:12.945Z,6.82
2023-04-05T14:19:39.802Z,6.90
2023-04-05T14:22:06.909Z,6.89
2023-04-05T14:24:34.613Z,6.82
2023-04-05T14:27:02.427Z,6.84
2023-04-05T14:29:29.102Z,6.90
2023-04-05T14:31:56.954Z,6.94
2023-04-05T14:34:23.692Z,6.96
2023-04-05T14:36:50.587Z,6.94
2023-04-05T14:39:17.618Z,6.83
2023-04-05T14:41:50.044Z,6.78
2023-04-05T14:44:16.737Z,6.74
2023-04-05T14:46:43.993Z,6.75
2023-04-05T14:49:10.775Z,6.77
2023-04-05T14:51:37.730Z,6.73
2023-04-05T14:54:05.090Z,6.73
2023-04-05T14:56:31.733Z,6.71
2023-04-05T14:58:58.754Z,6.71
2023-04-05T15:01:26.161Z,6.69
2023-04-05T15:03:53.932Z,6.68
2023-04-05T15:06:20.899Z,6.58
2023-04-05T15:08:47.853Z,6.57
2023-04-05T15:11:14.610Z,6.62
2023-04-05T15:13:41.303Z,6.60
2023-04-05T15:16:08.214Z,6.53
2023-04-05T15:18:34.848Z,6.46
2023-04-05T15:21:01.988Z,6.40
2023-04-05T15:23:29.381Z,6.38
2023-04-05T15:25:56.650Z,6.40
2023-04-05T15:28:23.281Z,6.40
2023-04-05T15:30:51.454Z,6.39
2023-04-05T15:33:18.174Z,6.44
2023-04-05T15:35:44.838Z,6.39
2023-04-05T15:38:12.059Z,6.35
2023-04-05T15:40:39.864Z,6.36
2023-04-05T15:43:06.607Z,6.34
2023-04-05T15:45:33.703Z,6.21
2023-04-05T15:48:00.415Z,6.25
2023-04-05T15:50:27.183Z,6.21
2023-04-05T15:52:55.886Z,6.23
2023-04-05T15:55:22.543Z,6.19
2023-04-05T15:57:55.346Z,6.23
2023-04-05T16:00:22.970Z,6.10
2023-04-05T16:02:50.381Z,6.25
2023-04-05T16:05:17.941Z,6.17
2023-04-05T16:07:45.548Z,6.16
2023-04-05T16:10:12.301Z,6.17
2023-04-05T16:12:38.981Z,6.22
2023-04-05T16:15:06.254Z,6.20
2023-04-05T16:17:33.134Z,6.11
2023-04-05T16:19:59.989Z,6.19
2023-04-05T16:22:27.046Z,6.18
2023-04-05T16:24:53.780Z,6.15
2023-04-05T16:27:20.499Z,6.15
2023-04-05T16:29:47.989Z,6.10
2023-04-05T16:32:14.797Z,6.06
2023-04-05T16:34:42.585Z,6.03
2023-04-05T16:37:09.473Z,5.96
2023-04-05T16:39:36.300Z,5.98
2023-04-05T16:42:03.210Z,5.93
2023-04-05T16:44:32.223Z,5.94
2023-04-05T16:46:59.036Z,5.88
2023-04-05T16:49:25.748Z,5.81
2023-04-05T16:51:52.780Z,5.65
2023-04-05T16:54:19.505Z,5.60
2023-04-05T16:56:46.328Z,5.54
2023-04-05T16:59:13.293Z,5.48
2023-04-05T17:01:40.120Z,5.37
2023-04-05T17:04:06.760Z,5.34
2023-04-05T17:06:33.775Z,5.33
2023-04-05T17:09:00.596Z,5.31
2023-04-05T17:11:28.481Z,5.31
2023-04-05T17:13:55.621Z,5.26
2023-04-05T17:16:22.466Z,5.24
2023-04-05T17:18:49.394Z,5.18
2023-04-05T17:21:17.069Z,5.12
2023-04-05T17:23:43.892Z,5.10
2023-04-05T17:26:11.252Z,5.11
2023-04-05T17:28:38.160Z,5.05
2023-04-05T17:31:05.150Z,5.05
2023-04-05T17:33:32.436Z,5.06
2023-04-05T17:36:00.092Z,5.03
2023-04-05T17:38:27.929Z,5.00
2023-04-05T17:40:57.313Z,4.97
2023-04-05T17:43:24.627Z,4.99
2023-04-05T17:45:51.953Z,4.93
2023-04-05T17:48:19.323Z,4.98
2023-04-05T17:50:46.459Z,4.92
2023-04-05T17:53:14.972Z,4.90
2023-04-05T17:55:42.416Z,4.87
2023-04-05T17:58:09.364Z,4.84
2023-04-05T18:00:36.233Z,4.83
2023-04-05T18:03:07.356Z,4.81
2023-04-05T18:05:35.099Z,4.79
2023-04-05T18:08:02.143Z,4.79
2023-04-05T18:10:28.867Z,4.80
2023-04-05T18:12:56.690Z,4.76
2023-04-05T18:15:23.471Z,4.76
2023-04-05T18:17:50.286Z,4.73
2023-04-05T18:20:17.017Z,4.69
2023-04-05T18:22:43.683Z,4.66
2023-04-05T18:25:11.880Z,4.69
2023-04-05T18:27:39.412Z,4.66
2023-04-05T18:30:08.144Z,4.66
2023-04-05T18:32:34.870Z,4.68
2023-04-05T18:35:01.605Z,4.72
2023-04-05T18:37:28.257Z,4.70
2023-04-05T18:39:55.026Z,4.74
2023-04-05T18:42:21.831Z,4.73
2023-04-05T18:44:49.303Z,4.73
2023-04-05T18:47:16.178Z,4.71
2023-04-05T18:49:43.316Z,4.65
2023-04-05T18:52:10.596Z,4.61
2023-04-05T18:54:39.800Z,4.58
2023-04-05T18:57:07.704Z,4.52
2023-04-05T18:59:34.380Z,4.50
2023-04-05T19:02:01.273Z,4.46
2023-04-05T19:04:28.646Z,4.46
2023-04-05T19:06:55.486Z,4.50
2023-04-05T19:09:22.357Z,4.45
2023-04-05T19:11:49.425Z,4.45
2023-04-05T19:14:16.722Z,4.38
2023-04-05T19:16:43.597Z,4.41
2023-04-05T19:19:10.391Z,4.40
2023-04-05T19:21:37.116Z,4.43
2023-04-05T19:24:04.175Z,4.36
2023-04-05T19:26:32.477Z,4.37
2023-04-05T19:28:59.195Z,4.34
2023-04-05T19:31:26.667Z,4.35
2023-04-05T19:33:53.963Z,4.35
2023-04-05T19:36:20.650Z,4.31
2023-04-05T19:38:47.522Z,4.31
2023-04-05T19:41:14.603Z,4.34
2023-04-05T19:43:41.448Z,4.34
2023-04-05T19:46:12.736Z,4.32
2023-04-05T19:48:42.125Z,4.34
2023-04-05T19:51:10.940Z,4.38
2023-04-05T19:53:44.864Z,4.41
2023-04-05T19:56:32.333Z,4.41
2023-04-05T19:59:04.231Z,4.41
2023-04-05T20:01:36.250Z,4.41
2023-04-05T20:04:17.472Z,4.41
2023-04-05T20:06:53.035Z,4.39
2023-04-05T20:09:30.548Z,4.42
2023-04-05T20:12:01.426Z,4.39
2023-04-05T20:14:46.501Z,4.37
2023-04-05T20:17:14.367Z,4.36
2023-04-05T20:19:56.821Z,4.24
2023-04-05T20:22:24.200Z,4.24
2023-04-05T20:24:51.874Z,4.29
2023-04-05T20:27:18.726Z,4.27
2023-04-05T20:29:46.177Z,4.25
2023-04-05T20:32:14.091Z,4.25
2023-04-05T20:34:43.912Z,4.23
2023-04-05T20:37:11.231Z,4.27
2023-04-05T20:39:38.100Z,4.24
2023-04-05T20:42:05.235Z,4.31
2023-04-05T20:44:32.126Z,4.30
2023-04-05T20:46:59.206Z,4.23
2023-04-05T20:49:25.963Z,4.25
2023-04-05T20:51:54.965Z,4.30
2023-04-05T20:54:22.507Z,4.30
2023-04-05T20:56:49.234Z,4.32
2023-04-05T20:59:15.917Z,4.34
2023-04-05T21:01:43.105Z,4.26
2023-04-05T21:04:10.260Z,4.27
2023-04-05T21:06:37.484Z,4.22
2023-04-05T21:09:04.591Z,4.26
2023-04-05T21:11:31.527Z,4.19
2023-04-05T21:13:58.337Z,4.27
2023-04-05T21:16:25.386Z,4.26
2023-04-05T21:18:52.476Z,4.09
2023-04-05T21:21:19.230Z,4.15
2023-04-05T21:23:46.086Z,4.21
2023-04-05T21:26:12.950Z,4.17
2023-04-05T21:28:39.615Z,4.14
2023-04-05T21:31:06.519Z,4.14
2023-04-05T21:33:33.510Z,4.14
2023-04-05T21:36:00.423Z,4.08
2023-04-05T21:38:27.271Z,4.11
2023-04-05T21:40:55.726Z,4.05
2023-04-05T21:43:22.705Z,4.08
2023-04-05T21:45:49.583Z,4.03
2023-04-05T21:48:17.753Z,4.05
2023-04-05T21:50:44.531Z,4.05
2023-04-05T21:53:11.325Z,4.04
2023-04-05T21:55:38.126Z,4.01
2023-04-05T21:58:04.881Z,4.08
2023-04-05T22:00:32.110Z,4.13
2023-04-05T22:02:59.180Z,4.06
2023-04-05T22:05:37.219Z,4.14
2023-04-05T22:08:07.095Z,4.12
2023-04-05T22:10:34.602Z,4.16
2023-04-05T22:13:01.770Z,4.15
2023-04-05T22:15:28.536Z,4.12
2023-04-05T22:17:55.193Z,4.08
2023-04-05T22:20:21.831Z,4.10
2023-04-05T22:22:48.785Z,4.11
2023-04-05T22:25:15.596Z,4.07
2023-04-05T22:27:42.333Z,4.07
2023-04-05T22:30:09.753Z,4.07
2023-04-05T22:32:36.809Z,4.07
2023-04-05T22:35:04.620Z,4.02
2023-04-05T22:37:35.820Z,4.06
2023-04-05T22:40:03.698Z,4.05
2023-04-05T22:42:30.743Z,4.08
2023-04-05T22:44:57.599Z,4.10
2023-04-05T22:47:24.417Z,4.09
2023-04-05T22:49:51.931Z,4.05
2023-04-05T22:52:18.664Z,4.06
2023-04-05T22:54:45.400Z,4.03
2023-04-05T22:57:12.906Z,4.05
2023-04-05T22:59:39.719Z,4.04
2023-04-05T23:02:06.544Z,4.05
2023-04-05T23:04:33.498Z,4.04
2023-04-05T23:07:00.432Z,4.07
2023-04-05T23:09:27.585Z,4.05
2023-04-05T23:11:54.409Z,4.02
2023-04-05T23:14:21.041Z,4.00
2023-04-05T23:16:47.697Z,3.90
2023-04-05T23:19:14.532Z,3.87
2023-04-05T23:21:41.728Z,3.90
2023-04-05T23:24:08.525Z,3.92
2023-04-05T23:26:35.594Z,3.90
2023-04-05T23:29:02.459Z,3.83
2023-04-05T23:31:29.132Z,3.84
2023-04-05T23:33:56.024Z,3.79
2023-04-05T23:36:23.093Z,3.84
2023-04-05T23:38:49.833Z,3.79
2023-04-05T23:41:16.706Z,3.81
2023-04-05T23:43:43.828Z,3.85
2023-04-05T23:46:10.821Z,3.84
2023-04-05T23:48:37.560Z,3.81
2023-04-05T23:51:04.671Z,3.80
2023-04-05T23:53:31.358Z,3.82
2023-04-05T23:55:57.980Z,3.84
2023-04-05T23:58:24.714Z,3.81
